Austinville, Iowa
Current Conditions -  °F | °C
As of 8:15 AM on Saturday 20 Dec 2014 (Local Time) from KIFA Reporting Station
Haze Haze  
Wind Chill: 24°   Ceiling: 300
Heat Index: 31°   Visibility: 1.2mi
Dew Point: 30°   Wind: 7mph
Humidity: 96%   Direction: 150°SSE
Pressure: 30.17"   Gusts: NA
Location:  42.59°N, 92.96°W
Report Text: KIFA 201415Z AUTO 15006KT 1 1/4SM BR OVC003 M01/M01 A3017 RMK AO2 T10081013
Loading
Personal Weather Stations






























Interactive Weather Map New forecast layout! Learn more

10-Day Weather Forecast

Advertisements
Track Severe Weather on mobile